sensor_id;sensor_type;location;lat;lon;timestamp;pressure;altitude;pressure_sealevel;temperature;humidity
59873;BME280;50750;51.636;4.948;2023-08-07T00:01:11;101534.23;;;20.32;57.36
59873;BME280;50750;51.636;4.948;2023-08-07T00:03:38;101533.40;;;20.32;57.43
59873;BME280;50750;51.636;4.948;2023-08-07T00:06:04;101537.31;;;20.31;57.38
59873;BME280;50750;51.636;4.948;2023-08-07T00:08:31;101535.77;;;20.31;57.27
59873;BME280;50750;51.636;4.948;2023-08-07T00:11:24;101537.14;;;20.31;57.27
59873;BME280;50750;51.636;4.948;2023-08-07T00:13:50;101537.36;;;20.30;57.30
59873;BME280;50750;51.636;4.948;2023-08-07T00:16:16;101538.08;;;20.30;57.19
59873;BME280;50750;51.636;4.948;2023-08-07T00:18:43;101537.02;;;20.30;57.40
59873;BME280;50750;51.636;4.948;2023-08-07T00:21:09;101534.04;;;20.29;57.18
59873;BME280;50750;51.636;4.948;2023-08-07T00:23:36;101531.34;;;20.30;57.36
59873;BME280;50750;51.636;4.948;2023-08-07T00:26:02;101532.25;;;20.30;57.31
59873;BME280;50750;51.636;4.948;2023-08-07T00:28:28;101532.09;;;20.29;57.33
59873;BME280;50750;51.636;4.948;2023-08-07T00:30:56;101529.77;;;20.29;57.20
59873;BME280;50750;51.636;4.948;2023-08-07T00:33:22;101531.94;;;20.29;57.26
59873;BME280;50750;51.636;4.948;2023-08-07T00:35:49;101532.16;;;20.28;57.33
59873;BME280;50750;51.636;4.948;2023-08-07T00:38:15;101536.23;;;20.29;57.17
59873;BME280;50750;51.636;4.948;2023-08-07T00:40:41;101536.92;;;20.29;57.19
59873;BME280;50750;51.636;4.948;2023-08-07T00:43:08;101537.66;;;20.29;57.30
59873;BME280;50750;51.636;4.948;2023-08-07T00:45:38;101537.15;;;20.28;57.41
59873;BME280;50750;51.636;4.948;2023-08-07T00:48:07;101535.90;;;20.28;57.26
59873;BME280;50750;51.636;4.948;2023-08-07T00:50:33;101539.30;;;20.28;57.21
59873;BME280;50750;51.636;4.948;2023-08-07T00:53:00;101539.84;;;20.27;57.17
59873;BME280;50750;51.636;4.948;2023-08-07T00:55:27;101542.35;;;20.27;57.18
59873;BME280;50750;51.636;4.948;2023-08-07T00:57:54;101545.05;;;20.27;57.38
59873;BME280;50750;51.636;4.948;2023-08-07T01:00:21;101543.46;;;20.27;57.18
59873;BME280;50750;51.636;4.948;2023-08-07T01:02:48;101547.37;;;20.27;57.05
59873;BME280;50750;51.636;4.948;2023-08-07T01:05:17;101547.17;;;20.27;57.33
59873;BME280;50750;51.636;4.948;2023-08-07T01:07:47;101551.50;;;20.26;57.07
59873;BME280;50750;51.636;4.948;2023-08-07T01:10:14;101558.30;;;20.25;57.17
59873;BME280;50750;51.636;4.948;2023-08-07T01:13:05;101581.98;;;20.25;57.12
59873;BME280;50750;51.636;4.948;2023-08-07T01:15:37;101574.73;;;20.24;57.03
59873;BME280;50750;51.636;4.948;2023-08-07T01:18:07;101581.87;;;20.24;57.18
59873;BME280;50750;51.636;4.948;2023-08-07T01:20:33;101574.91;;;20.24;57.14
59873;BME280;50750;51.636;4.948;2023-08-07T01:23:00;101573.00;;;20.23;57.22
59873;BME280;50750;51.636;4.948;2023-08-07T01:25:27;101569.09;;;20.23;57.11
59873;BME280;50750;51.636;4.948;2023-08-07T01:28:36;101563.23;;;20.23;57.15
59873;BME280;50750;51.636;4.948;2023-08-07T01:31:07;101564.48;;;20.23;57.30
59873;BME280;50750;51.636;4.948;2023-08-07T01:33:45;101555.98;;;20.22;57.18
59873;BME280;50750;51.636;4.948;2023-08-07T01:36:14;101556.17;;;20.22;57.14
59873;BME280;50750;51.636;4.948;2023-08-07T01:38:42;101558.45;;;20.23;57.13
59873;BME280;50750;51.636;4.948;2023-08-07T01:41:09;101554.89;;;20.23;57.21
59873;BME280;50750;51.636;4.948;2023-08-07T01:43:36;101555.79;;;20.23;57.13
59873;BME280;50750;51.636;4.948;2023-08-07T01:46:02;101557.39;;;20.23;57.24
59873;BME280;50750;51.636;4.948;2023-08-07T01:48:29;101557.72;;;20.23;57.29
59873;BME280;50750;51.636;4.948;2023-08-07T01:50:55;101557.73;;;20.23;57.17
59873;BME280;50750;51.636;4.948;2023-08-07T01:53:22;101556.33;;;20.22;57.17
59873;BME280;50750;51.636;4.948;2023-08-07T01:55:48;101557.41;;;20.22;57.26
59873;BME280;50750;51.636;4.948;2023-08-07T01:58:14;101560.08;;;20.22;57.01
59873;BME280;50750;51.636;4.948;2023-08-07T02:00:41;101556.00;;;20.22;57.36
59873;BME280;50750;51.636;4.948;2023-08-07T02:03:07;101557.60;;;20.22;57.20
59873;BME280;50750;51.636;4.948;2023-08-07T02:05:34;101554.10;;;20.21;57.13
59873;BME280;50750;51.636;4.948;2023-08-07T02:08:00;101554.61;;;20.21;57.25
59873;BME280;50750;51.636;4.948;2023-08-07T02:10:26;101559.08;;;20.21;57.21
59873;BME280;50750;51.636;4.948;2023-08-07T02:12:57;101560.14;;;20.21;57.28
59873;BME280;50750;51.636;4.948;2023-08-07T02:15:25;101559.97;;;20.21;57.05
59873;BME280;50750;51.636;4.948;2023-08-07T02:17:51;101560.36;;;20.21;57.11
59873;BME280;50750;51.636;4.948;2023-08-07T02:20:18;101561.09;;;20.20;57.08
59873;BME280;50750;51.636;4.948;2023-08-07T02:22:44;101566.63;;;20.20;57.13
59873;BME280;50750;51.636;4.948;2023-08-07T02:25:11;101568.58;;;20.20;57.06
59873;BME280;50750;51.636;4.948;2023-08-07T02:27:37;101568.58;;;20.20;57.06
59873;BME280;50750;51.636;4.948;2023-08-07T02:30:04;101571.27;;;20.19;57.02
59873;BME280;50750;51.636;4.948;2023-08-07T02:32:31;101571.79;;;20.20;57.15
59873;BME280;50750;51.636;4.948;2023-08-07T02:34:58;101568.44;;;20.19;57.12
59873;BME280;50750;51.636;4.948;2023-08-07T02:37:24;101569.16;;;20.19;57.14
59873;BME280;50750;51.636;4.948;2023-08-07T02:39:50;101565.84;;;20.19;57.07
59873;BME280;50750;51.636;4.948;2023-08-07T02:42:17;101568.86;;;20.18;57.13
59873;BME280;50750;51.636;4.948;2023-08-07T02:44:43;101568.69;;;20.18;56.97
59873;BME280;50750;51.636;4.948;2023-08-07T02:47:10;101571.36;;;20.18;57.15
59873;BME280;50750;51.636;4.948;2023-08-07T02:49:36;101568.71;;;20.18;57.00
59873;BME280;50750;51.636;4.948;2023-08-07T02:52:03;101572.79;;;20.18;57.11
59873;BME280;50750;51.636;4.948;2023-08-07T02:54:29;101570.49;;;20.18;56.94
59873;BME280;50750;51.636;4.948;2023-08-07T02:56:57;101573.35;;;20.18;57.21
59873;BME280;50750;51.636;4.948;2023-08-07T02:59:23;101571.22;;;20.17;57.26
59873;BME280;50750;51.636;4.948;2023-08-07T03:01:50;101572.83;;;20.17;57.14
59873;BME280;50750;51.636;4.948;2023-08-07T03:04:16;101569.45;;;20.17;57.09
59873;BME280;50750;51.636;4.948;2023-08-07T03:06:43;101569.48;;;20.17;57.13
59873;BME280;50750;51.636;4.948;2023-08-07T03:09:09;101568.28;;;20.16;56.98
59873;BME280;50750;51.636;4.948;2023-08-07T03:11:36;101560.81;;;20.16;57.14
59873;BME280;50750;51.636;4.948;2023-08-07T03:14:03;101559.94;;;20.16;57.07
59873;BME280;50750;51.636;4.948;2023-08-07T03:16:29;101558.00;;;20.16;57.15
59873;BME280;50750;51.636;4.948;2023-08-07T03:18:55;101554.09;;;20.16;57.09
59873;BME280;50750;51.636;4.948;2023-08-07T03:21:22;101554.45;;;20.15;57.17
59873;BME280;50750;51.636;4.948;2023-08-07T03:23:48;101560.00;;;20.15;57.18
59873;BME280;50750;51.636;4.948;2023-08-07T03:26:14;101558.59;;;20.15;57.11
59873;BME280;50750;51.636;4.948;2023-08-07T03:28:41;101559.29;;;20.15;57.14
59873;BME280;50750;51.636;4.948;2023-08-07T03:31:07;101559.35;;;20.14;56.96
59873;BME280;50750;51.636;4.948;2023-08-07T03:33:34;101562.40;;;20.13;57.02
59873;BME280;50750;51.636;4.948;2023-08-07T03:36:00;101567.39;;;20.13;57.06
59873;BME280;50750;51.636;4.948;2023-08-07T03:38:26;101570.98;;;20.13;57.08
59873;BME280;50750;51.636;4.948;2023-08-07T03:40:53;101576.48;;;20.13;56.97
59873;BME280;50750;51.636;4.948;2023-08-07T03:43:19;101575.96;;;20.13;56.85
59873;BME280;50750;51.636;4.948;2023-08-07T03:45:45;101582.60;;;20.12;56.92
59873;BME280;50750;51.636;4.948;2023-08-07T03:48:12;101584.34;;;20.12;56.91
59873;BME280;50750;51.636;4.948;2023-08-07T03:50:38;101588.45;;;20.12;56.93
59873;BME280;50750;51.636;4.948;2023-08-07T03:53:05;101585.27;;;20.12;57.11
59873;BME280;50750;51.636;4.948;2023-08-07T03:55:34;101583.88;;;20.11;56.77
59873;BME280;50750;51.636;4.948;2023-08-07T03:58:01;101584.95;;;20.11;57.04
59873;BME280;50750;51.636;4.948;2023-08-07T04:00:28;101586.40;;;20.11;56.78
59873;BME280;50750;51.636;4.948;2023-08-07T04:02:54;101587.48;;;20.10;56.83
59873;BME280;50750;51.636;4.948;2023-08-07T04:05:20;101591.96;;;20.10;56.74
59873;BME280;50750;51.636;4.948;2023-08-07T04:07:47;101590.56;;;20.09;56.89
59873;BME280;50750;51.636;4.948;2023-08-07T04:10:13;101596.07;;;20.09;56.85
59873;BME280;50750;51.636;4.948;2023-08-07T04:12:40;101599.30;;;20.08;56.77
59873;BME280;50750;51.636;4.948;2023-08-07T04:15:07;101595.56;;;20.08;56.66
59873;BME280;50750;51.636;4.948;2023-08-07T04:17:35;101594.70;;;20.08;56.74
59873;BME280;50750;51.636;4.948;2023-08-07T04:20:03;101596.31;;;20.08;56.65
59873;BME280;50750;51.636;4.948;2023-08-07T04:22:30;101590.65;;;20.07;56.61
59873;BME280;50750;51.636;4.948;2023-08-07T04:24:56;101596.19;;;20.07;56.77
59873;BME280;50750;51.636;4.948;2023-08-07T04:27:23;101595.85;;;20.07;56.73
59873;BME280;50750;51.636;4.948;2023-08-07T04:29:49;101597.43;;;20.07;56.74
59873;BME280;50750;51.636;4.948;2023-08-07T04:32:15;101594.25;;;20.06;56.55
59873;BME280;50750;51.636;4.948;2023-08-07T04:34:42;101593.02;;;20.06;56.64
59873;BME280;50750;51.636;4.948;2023-08-07T04:37:08;101593.58;;;20.06;56.71
59873;BME280;50750;51.636;4.948;2023-08-07T04:39:35;101593.40;;;20.06;56.74
59873;BME280;50750;51.636;4.948;2023-08-07T04:42:03;101595.77;;;20.05;56.62
59873;BME280;50750;51.636;4.948;2023-08-07T04:44:29;101600.19;;;20.05;56.58
59873;BME280;50750;51.636;4.948;2023-08-07T04:46:56;101598.46;;;20.05;56.48
59873;BME280;50750;51.636;4.948;2023-08-07T04:49:22;101597.77;;;20.04;56.53
59873;BME280;50750;51.636;4.948;2023-08-07T04:51:48;101600.63;;;20.04;56.71
59873;BME280;50750;51.636;4.948;2023-08-07T04:54:15;101605.77;;;20.04;56.45
59873;BME280;50750;51.636;4.948;2023-08-07T04:56:41;101602.24;;;20.04;56.61
59873;BME280;50750;51.636;4.948;2023-08-07T04:59:11;101607.75;;;20.04;56.63
59873;BME280;50750;51.636;4.948;2023-08-07T05:01:37;101605.83;;;20.03;56.66
59873;BME280;50750;51.636;4.948;2023-08-07T05:04:04;101611.36;;;20.03;56.49
59873;BME280;50750;51.636;4.948;2023-08-07T05:06:31;101608.02;;;20.03;56.73
59873;BME280;50750;51.636;4.948;2023-08-07T05:08:58;101607.48;;;20.02;56.71
59873;BME280;50750;51.636;4.948;2023-08-07T05:11:24;101608.72;;;20.02;56.64
59873;BME280;50750;51.636;4.948;2023-08-07T05:13:50;101609.83;;;20.02;56.69
59873;BME280;50750;51.636;4.948;2023-08-07T05:16:17;101612.13;;;20.02;56.62
59873;BME280;50750;51.636;4.948;2023-08-07T05:18:45;101612.69;;;20.01;56.58
59873;BME280;50750;51.636;4.948;2023-08-07T05:21:11;101616.23;;;20.01;56.89
59873;BME280;50750;51.636;4.948;2023-08-07T05:23:37;101617.84;;;20.01;56.70
59873;BME280;50750;51.636;4.948;2023-08-07T05:26:04;101620.16;;;20.01;56.86
59873;BME280;50750;51.636;4.948;2023-08-07T05:28:30;101618.58;;;20.01;56.80
59873;BME280;50750;51.636;4.948;2023-08-07T05:30:56;101624.61;;;20.01;56.74
59873;BME280;50750;51.636;4.948;2023-08-07T05:33:23;101627.29;;;20.01;56.74
59873;BME280;50750;51.636;4.948;2023-08-07T05:35:49;101629.60;;;20.01;56.73
59873;BME280;50750;51.636;4.948;2023-08-07T05:38:16;101626.09;;;20.00;56.69
59873;BME280;50750;51.636;4.948;2023-08-07T05:40:42;101631.04;;;20.01;56.70
59873;BME280;50750;51.636;4.948;2023-08-07T05:43:08;101636.22;;;20.00;56.76
59873;BME280;50750;51.636;4.948;2023-08-07T05:45:35;101640.30;;;20.00;56.58
59873;BME280;50750;51.636;4.948;2023-08-07T05:48:01;101638.91;;;20.00;56.57
59873;BME280;50750;51.636;4.948;2023-08-07T05:50:28;101646.23;;;20.00;56.70
59873;BME280;50750;51.636;4.948;2023-08-07T05:52:54;101649.79;;;19.99;56.79
59873;BME280;50750;51.636;4.948;2023-08-07T05:55:20;101649.42;;;19.99;56.69
59873;BME280;50750;51.636;4.948;2023-08-07T05:57:47;101653.00;;;19.99;56.58
59873;BME280;50750;51.636;4.948;2023-08-07T06:00:15;101656.38;;;19.99;56.72
59873;BME280;50750;51.636;4.948;2023-08-07T06:02:45;101658.17;;;19.99;56.62
59873;BME280;50750;51.636;4.948;2023-08-07T06:05:11;101665.27;;;19.99;56.70
59873;BME280;50750;51.636;4.948;2023-08-07T06:07:40;101666.37;;;19.98;56.53
59873;BME280;50750;51.636;4.948;2023-08-07T06:10:07;101669.42;;;19.98;56.58
59873;BME280;50750;51.636;4.948;2023-08-07T06:12:34;101671.71;;;19.98;56.63
59873;BME280;50750;51.636;4.948;2023-08-07T06:15:00;101672.63;;;19.98;56.49
59873;BME280;50750;51.636;4.948;2023-08-07T06:17:27;101669.06;;;19.98;56.44
59873;BME280;50750;51.636;4.948;2023-08-07T06:19:53;101667.14;;;19.97;56.57
59873;BME280;50750;51.636;4.948;2023-08-07T06:22:20;101664.48;;;19.97;56.57
59873;BME280;50750;51.636;4.948;2023-08-07T06:24:46;101667.35;;;19.97;56.54
59873;BME280;50750;51.636;4.948;2023-08-07T06:27:12;101670.55;;;19.97;56.57
59873;BME280;50750;51.636;4.948;2023-08-07T06:29:39;101673.92;;;19.97;56.46
59873;BME280;50750;51.636;4.948;2023-08-07T06:32:06;101675.34;;;19.97;56.60
59873;BME280;50750;51.636;4.948;2023-08-07T06:34:35;101678.21;;;19.97;56.48
59873;BME280;50750;51.636;4.948;2023-08-07T06:37:01;101679.10;;;19.97;56.47
59873;BME280;50750;51.636;4.948;2023-08-07T06:39:28;101680.89;;;19.96;56.43
59873;BME280;50750;51.636;4.948;2023-08-07T06:41:54;101686.41;;;19.97;56.49
59873;BME280;50750;51.636;4.948;2023-08-07T06:44:21;101688.91;;;19.96;56.39
59873;BME280;50750;51.636;4.948;2023-08-07T06:46:47;101687.33;;;19.96;56.44
59873;BME280;50750;51.636;4.948;2023-08-07T06:49:13;101685.70;;;19.96;56.44
59873;BME280;50750;51.636;4.948;2023-08-07T06:51:39;101688.20;;;19.96;56.46
59873;BME280;50750;51.636;4.948;2023-08-07T06:54:06;101692.48;;;19.96;56.56
59873;BME280;50750;51.636;4.948;2023-08-07T06:56:32;101694.60;;;19.96;56.40
59873;BME280;50750;51.636;4.948;2023-08-07T06:58:58;101693.02;;;19.96;56.54
59873;BME280;50750;51.636;4.948;2023-08-07T07:01:25;101691.27;;;19.95;56.39
59873;BME280;50750;51.636;4.948;2023-08-07T07:03:51;101692.15;;;19.95;56.53
59873;BME280;50750;51.636;4.948;2023-08-07T07:06:19;101697.47;;;19.95;56.42
59873;BME280;50750;51.636;4.948;2023-08-07T07:08:47;101699.61;;;19.95;56.44
59873;BME280;50750;51.636;4.948;2023-08-07T07:11:13;101702.27;;;19.96;56.32
59873;BME280;50750;51.636;4.948;2023-08-07T07:13:41;101702.30;;;19.95;56.41
59873;BME280;50750;51.636;4.948;2023-08-07T07:16:07;101705.17;;;19.94;56.39
59873;BME280;50750;51.636;4.948;2023-08-07T07:18:34;101709.42;;;19.95;56.15
59873;BME280;50750;51.636;4.948;2023-08-07T07:21:01;101712.48;;;19.94;56.43
59873;BME280;50750;51.636;4.948;2023-08-07T07:23:27;101711.75;;;19.95;56.40
59873;BME280;50750;51.636;4.948;2023-08-07T07:25:54;101714.80;;;19.94;56.38
59873;BME280;50750;51.636;4.948;2023-08-07T07:28:21;101714.98;;;19.94;56.42
59873;BME280;50750;51.636;4.948;2023-08-07T07:30:47;101717.13;;;19.94;56.36
59873;BME280;50750;51.636;4.948;2023-08-07T07:33:14;101722.82;;;19.94;56.35
59873;BME280;50750;51.636;4.948;2023-08-07T07:35:40;101728.30;;;19.94;56.41
59873;BME280;50750;51.636;4.948;2023-08-07T07:38:07;101727.58;;;19.95;56.22
59873;BME280;50750;51.636;4.948;2023-08-07T07:40:36;101732.42;;;19.94;56.26
59873;BME280;50750;51.636;4.948;2023-08-07T07:43:03;101737.20;;;19.94;56.22
59873;BME280;50750;51.636;4.948;2023-08-07T07:45:29;101734.03;;;19.94;56.04
59873;BME280;50750;51.636;4.948;2023-08-07T07:47:55;101735.50;;;19.92;56.05
59873;BME280;50750;51.636;4.948;2023-08-07T07:50:22;101736.19;;;19.93;55.84
59873;BME280;50750;51.636;4.948;2023-08-07T07:52:48;101733.75;;;19.92;56.09
59873;BME280;50750;51.636;4.948;2023-08-07T07:55:15;101742.09;;;19.92;56.03
59873;BME280;50750;51.636;4.948;2023-08-07T07:57:41;101737.34;;;19.92;55.85
59873;BME280;50750;51.636;4.948;2023-08-07T08:00:08;101738.57;;;19.92;55.78
59873;BME280;50750;51.636;4.948;2023-08-07T08:02:36;101740.66;;;19.93;55.81
59873;BME280;50750;51.636;4.948;2023-08-07T08:05:03;101746.91;;;19.92;55.77
59873;BME280;50750;51.636;4.948;2023-08-07T08:07:29;101745.65;;;19.92;55.61
59873;BME280;50750;51.636;4.948;2023-08-07T08:09:58;101751.52;;;19.92;55.54
59873;BME280;50750;51.636;4.948;2023-08-07T08:12:24;101757.74;;;19.92;55.70
59873;BME280;50750;51.636;4.948;2023-08-07T08:14:51;101765.02;;;19.92;55.54
59873;BME280;50750;51.636;4.948;2023-08-07T08:17:17;101769.96;;;19.93;55.55
59873;BME280;50750;51.636;4.948;2023-08-07T08:19:43;101765.55;;;19.92;55.57
59873;BME280;50750;51.636;4.948;2023-08-07T08:22:09;101768.06;;;19.92;55.46
59873;BME280;50750;51.636;4.948;2023-08-07T08:24:36;101771.94;;;19.93;55.58
59873;BME280;50750;51.636;4.948;2023-08-07T08:27:03;101780.45;;;19.93;55.54
59873;BME280;50750;51.636;4.948;2023-08-07T08:29:29;101777.09;;;19.92;55.26
59873;BME280;50750;51.636;4.948;2023-08-07T08:31:55;101777.63;;;19.93;55.37
59873;BME280;50750;51.636;4.948;2023-08-07T08:34:22;101782.23;;;19.93;55.23
59873;BME280;50750;51.636;4.948;2023-08-07T08:36:49;101784.73;;;19.93;55.21
59873;BME280;50750;51.636;4.948;2023-08-07T08:39:15;101790.23;;;19.93;55.22
59873;BME280;50750;51.636;4.948;2023-08-07T08:41:42;101786.86;;;19.93;55.03
59873;BME280;50750;51.636;4.948;2023-08-07T08:44:12;101789.89;;;19.92;55.27
59873;BME280;50750;51.636;4.948;2023-08-07T08:46:42;101791.48;;;19.93;55.13
59873;BME280;50750;51.636;4.948;2023-08-07T08:49:10;101790.96;;;19.93;55.19
59873;BME280;50750;51.636;4.948;2023-08-07T08:51:37;101792.39;;;19.92;55.08
59873;BME280;50750;51.636;4.948;2023-08-07T08:54:03;101795.93;;;19.93;55.19
59873;BME280;50750;51.636;4.948;2023-08-07T08:56:32;101795.76;;;19.93;55.11
59873;BME280;50750;51.636;4.948;2023-08-07T08:58:59;101797.89;;;19.92;55.12
59873;BME280;50750;51.636;4.948;2023-08-07T09:01:27;101793.08;;;19.93;55.20
59873;BME280;50750;51.636;4.948;2023-08-07T09:03:55;101794.82;;;19.93;55.16
59873;BME280;50750;51.636;4.948;2023-08-07T09:06:22;101802.83;;;19.93;54.92
59873;BME280;50750;51.636;4.948;2023-08-07T09:08:49;101803.71;;;19.93;55.00
59873;BME280;50750;51.636;4.948;2023-08-07T09:11:17;101804.26;;;19.93;54.84
59873;BME280;50750;51.636;4.948;2023-08-07T09:13:47;101801.04;;;19.94;54.85
59873;BME280;50750;51.636;4.948;2023-08-07T09:16:16;101803.36;;;19.94;54.79
59873;BME280;50750;51.636;4.948;2023-08-07T09:18:43;101804.42;;;19.94;54.84
59873;BME280;50750;51.636;4.948;2023-08-07T09:21:10;101804.95;;;19.93;54.73
59873;BME280;50750;51.636;4.948;2023-08-07T09:23:36;101808.31;;;19.94;54.72
59873;BME280;50750;51.636;4.948;2023-08-07T09:26:04;101811.33;;;19.94;54.87
59873;BME280;50750;51.636;4.948;2023-08-07T09:28:32;101817.73;;;19.94;54.85
59873;BME280;50750;51.636;4.948;2023-08-07T09:30:59;101817.88;;;19.95;54.86
59873;BME280;50750;51.636;4.948;2023-08-07T09:33:28;101821.95;;;19.95;54.75
59873;BME280;50750;51.636;4.948;2023-08-07T09:35:59;101823.91;;;19.95;54.75
59873;BME280;50750;51.636;4.948;2023-08-07T09:38:30;101827.10;;;19.95;54.71
59873;BME280;50750;51.636;4.948;2023-08-07T09:41:01;101824.41;;;19.95;54.65
59873;BME280;50750;51.636;4.948;2023-08-07T09:43:29;101823.34;;;19.95;54.65
59873;BME280;50750;51.636;4.948;2023-08-07T09:46:06;101826.55;;;19.95;54.60
59873;BME280;50750;51.636;4.948;2023-08-07T09:48:39;101828.19;;;19.95;54.66
59873;BME280;50750;51.636;4.948;2023-08-07T09:51:06;101828.90;;;19.94;54.80
59873;BME280;50750;51.636;4.948;2023-08-07T09:53:33;101827.84;;;19.94;54.69
59873;BME280;50750;51.636;4.948;2023-08-07T09:56:00;101826.23;;;19.94;54.69
59873;BME280;50750;51.636;4.948;2023-08-07T09:58:28;101831.52;;;19.95;54.59
59873;BME280;50750;51.636;4.948;2023-08-07T10:00:55;101834.72;;;19.95;54.57
59873;BME280;50750;51.636;4.948;2023-08-07T10:03:25;101837.02;;;19.96;54.54
59873;BME280;50750;51.636;4.948;2023-08-07T10:05:52;101841.44;;;19.96;54.39
59873;BME280;50750;51.636;4.948;2023-08-07T10:08:18;101838.61;;;19.96;54.76
59873;BME280;50750;51.636;4.948;2023-08-07T10:10:46;101841.23;;;19.96;54.58
59873;BME280;50750;51.636;4.948;2023-08-07T10:13:14;101840.89;;;19.97;54.61
59873;BME280;50750;51.636;4.948;2023-08-07T10:15:40;101840.89;;;19.97;54.68
59873;BME280;50750;51.636;4.948;2023-08-07T10:18:08;101840.52;;;19.97;54.49
59873;BME280;50750;51.636;4.948;2023-08-07T10:20:36;101844.75;;;19.97;54.73
59873;BME280;50750;51.636;4.948;2023-08-07T10:23:12;101848.48;;;19.97;54.56
59873;BME280;50750;51.636;4.948;2023-08-07T10:25:43;101854.85;;;19.98;54.62
59873;BME280;50750;51.636;4.948;2023-08-07T10:28:13;101853.44;;;19.97;54.57
59873;BME280;50750;51.636;4.948;2023-08-07T10:30:42;101857.48;;;19.98;54.28
59873;BME280;50750;51.636;4.948;2023-08-07T10:33:12;101854.30;;;19.98;54.47
59873;BME280;50750;51.636;4.948;2023-08-07T10:35:47;101850.75;;;19.98;54.25
59873;BME280;50750;51.636;4.948;2023-08-07T10:38:14;101855.52;;;19.99;54.25
59873;BME280;50750;51.636;4.948;2023-08-07T10:43:30;101864.03;;;19.99;54.17
59873;BME280;50750;51.636;4.948;2023-08-07T10:46:03;101863.16;;;19.98;54.21
59873;BME280;50750;51.636;4.948;2023-08-07T10:48:37;101865.44;;;19.99;54.24
59873;BME280;50750;51.636;4.948;2023-08-07T10:51:05;101865.27;;;19.99;54.20
59873;BME280;50750;51.636;4.948;2023-08-07T10:53:41;101861.73;;;19.99;53.99
59873;BME280;50750;51.636;4.948;2023-08-07T10:56:15;101860.48;;;19.99;54.37
59873;BME280;50750;51.636;4.948;2023-08-07T10:58:41;101861.89;;;19.99;54.06
59873;BME280;50750;51.636;4.948;2023-08-07T11:01:17;101866.66;;;20.00;54.28
59873;BME280;50750;51.636;4.948;2023-08-07T11:03:57;101867.36;;;20.00;54.35
59873;BME280;50750;51.636;4.948;2023-08-07T11:06:29;101865.61;;;19.99;54.40
59873;BME280;50750;51.636;4.948;2023-08-07T11:09:04;101863.08;;;20.00;54.21
59873;BME280;50750;51.636;4.948;2023-08-07T11:11:38;101860.60;;;20.00;54.27
59873;BME280;50750;51.636;4.948;2023-08-07T11:14:14;101862.17;;;20.00;54.14
59873;BME280;50750;51.636;4.948;2023-08-07T11:16:41;101863.77;;;20.00;54.16
59873;BME280;50750;51.636;4.948;2023-08-07T11:19:09;101858.95;;;20.00;54.29
59873;BME280;50750;51.636;4.948;2023-08-07T11:21:36;101861.59;;;20.01;54.13
59873;BME280;50750;51.636;4.948;2023-08-07T11:24:03;101864.06;;;20.02;54.36
59873;BME280;50750;51.636;4.948;2023-08-07T11:26:29;101866.73;;;20.02;54.19
59873;BME280;50750;51.636;4.948;2023-08-07T11:28:56;101867.09;;;20.01;54.24
59873;BME280;50750;51.636;4.948;2023-08-07T11:31:24;101865.84;;;20.02;54.13
59873;BME280;50750;51.636;4.948;2023-08-07T11:33:52;101863.85;;;20.02;54.15
59873;BME280;50750;51.636;4.948;2023-08-07T11:36:19;101862.27;;;20.02;54.20
59873;BME280;50750;51.636;4.948;2023-08-07T11:38:45;101858.52;;;20.02;54.19
59873;BME280;50750;51.636;4.948;2023-08-07T11:41:13;101860.27;;;20.03;54.34
59873;BME280;50750;51.636;4.948;2023-08-07T11:43:41;101859.15;;;20.03;54.46
59873;BME280;50750;51.636;4.948;2023-08-07T11:46:10;101864.48;;;20.04;54.62
59873;BME280;50750;51.636;4.948;2023-08-07T11:48:38;101869.81;;;20.04;54.71
59873;BME280;50750;51.636;4.948;2023-08-07T11:51:06;101866.77;;;20.04;54.57
59873;BME280;50750;51.636;4.948;2023-08-07T11:53:37;101869.06;;;20.04;54.64
59873;BME280;50750;51.636;4.948;2023-08-07T11:56:10;101872.78;;;20.05;54.64
59873;BME280;50750;51.636;4.948;2023-08-07T11:58:38;101878.46;;;20.05;54.71
59873;BME280;50750;51.636;4.948;2023-08-07T12:01:09;101872.25;;;20.05;54.73
59873;BME280;50750;51.636;4.948;2023-08-07T12:03:38;101868.30;;;20.05;54.87
59873;BME280;50750;51.636;4.948;2023-08-07T12:06:08;101874.88;;;20.05;54.92
59873;BME280;50750;51.636;4.948;2023-08-07T12:08:39;101877.50;;;20.06;54.95
59873;BME280;50750;51.636;4.948;2023-08-07T12:11:12;101876.78;;;20.06;54.95
59873;BME280;50750;51.636;4.948;2023-08-07T12:13:41;101881.20;;;20.07;55.08
59873;BME280;50750;51.636;4.948;2023-08-07T12:16:09;101878.89;;;20.07;55.01
59873;BME280;50750;51.636;4.948;2023-08-07T12:18:37;101878.67;;;20.08;55.14
59873;BME280;50750;51.636;4.948;2023-08-07T12:21:07;101880.77;;;20.08;54.99
59873;BME280;50750;51.636;4.948;2023-08-07T12:23:34;101880.73;;;20.09;54.96
59873;BME280;50750;51.636;4.948;2023-08-07T12:26:02;101884.62;;;20.10;55.15
59873;BME280;50750;51.636;4.948;2023-08-07T12:28:29;101884.27;;;20.10;55.10
59873;BME280;50750;51.636;4.948;2023-08-07T12:30:56;101882.48;;;20.10;55.32
59873;BME280;50750;51.636;4.948;2023-08-07T12:33:22;101882.48;;;20.10;55.23
59873;BME280;50750;51.636;4.948;2023-08-07T12:35:49;101882.45;;;20.11;55.12
59873;BME280;50750;51.636;4.948;2023-08-07T12:38:15;101875.67;;;20.11;55.22
59873;BME280;50750;51.636;4.948;2023-08-07T12:40:43;101876.73;;;20.11;55.21
59873;BME280;50750;51.636;4.948;2023-08-07T12:43:09;101874.41;;;20.11;55.22
59873;BME280;50750;51.636;4.948;2023-08-07T12:45:36;101871.55;;;20.11;55.38
59873;BME280;50750;51.636;4.948;2023-08-07T12:48:03;101871.92;;;20.11;55.37
59873;BME280;50750;51.636;4.948;2023-08-07T12:50:30;101872.08;;;20.12;55.42
59873;BME280;50750;51.636;4.948;2023-08-07T12:52:56;101872.75;;;20.12;55.56
59873;BME280;50750;51.636;4.948;2023-08-07T12:55:23;101868.64;;;20.12;55.43